createdAt,value
2018-11-06T00:01:23.471Z,6.46
2018-11-06T00:03:41.545Z,6.48
2018-11-06T00:05:53.999Z,6.44
2018-11-06T00:08:06.214Z,6.38
2018-11-06T00:10:18.494Z,6.33
2018-11-06T00:12:30.714Z,6.31
2018-11-06T00:14:42.923Z,6.28
2018-11-06T00:16:55.131Z,6.27
2018-11-06T00:19:07.363Z,6.23
2018-11-06T00:21:19.538Z,6.21
2018-11-06T00:23:31.820Z,6.24
2018-11-06T00:25:44.031Z,6.28
2018-11-06T00:27:56.261Z,6.30
2018-11-06T00:30:10.586Z,6.31
2018-11-06T00:32:22.925Z,6.29
2018-11-06T00:34:35.700Z,6.31
2018-11-06T00:36:47.902Z,6.32
2018-11-06T00:39:00.110Z,6.32
2018-11-06T00:41:12.343Z,6.28
2018-11-06T00:43:24.566Z,6.21
2018-11-06T00:45:36.846Z,6.17
2018-11-06T00:47:49.048Z,6.09
2018-11-06T00:50:01.250Z,6.03
2018-11-06T00:52:13.498Z,6.03
2018-11-06T00:54:25.679Z,5.96
2018-11-06T00:56:37.858Z,5.88
2018-11-06T00:58:50.138Z,5.82
2018-11-06T01:01:02.407Z,5.82
2018-11-06T01:03:14.622Z,5.81
2018-11-06T01:05:27.674Z,5.85
2018-11-06T01:07:40.279Z,5.85
2018-11-06T01:09:52.892Z,5.86
2018-11-06T01:12:05.161Z,5.82
2018-11-06T01:14:17.353Z,5.81
2018-11-06T01:16:29.575Z,5.79
2018-11-06T01:18:42.059Z,5.76
2018-11-06T01:20:54.237Z,5.73
2018-11-06T01:23:06.435Z,5.69
2018-11-06T01:25:18.695Z,5.70
2018-11-06T01:27:30.966Z,5.73
2018-11-06T01:29:43.226Z,5.76
2018-11-06T01:31:55.416Z,5.83
2018-11-06T01:34:07.654Z,5.86
2018-11-06T01:36:19.889Z,5.87
2018-11-06T01:38:32.160Z,5.86
2018-11-06T01:40:44.350Z,5.85
2018-11-06T01:42:56.562Z,5.83
2018-11-06T01:45:10.782Z,5.82
2018-11-06T01:47:23.051Z,5.82
2018-11-06T01:49:35.406Z,5.82
2018-11-06T01:51:47.624Z,5.79
2018-11-06T01:53:59.908Z,5.71
2018-11-06T01:56:12.150Z,5.61
2018-11-06T01:58:24.328Z,5.54
2018-11-06T02:00:36.530Z,5.52
2018-11-06T02:02:48.747Z,5.56
2018-11-06T02:05:00.950Z,5.62
2018-11-06T02:07:13.169Z,5.68
2018-11-06T02:09:25.350Z,5.69
2018-11-06T02:11:37.610Z,5.64
2018-11-06T02:13:49.791Z,5.64
2018-11-06T02:16:02.008Z,5.64
2018-11-06T02:18:14.235Z,5.63
2018-11-06T02:20:26.418Z,5.65
2018-11-06T02:22:39.410Z,5.64
2018-11-06T02:24:51.653Z,5.62
2018-11-06T02:27:04.228Z,5.60
2018-11-06T02:29:16.425Z,5.54
2018-11-06T02:31:28.646Z,5.43
2018-11-06T02:33:40.871Z,5.36
2018-11-06T02:35:53.207Z,5.32
2018-11-06T02:38:05.482Z,5.29
2018-11-06T02:40:17.710Z,5.30
2018-11-06T02:42:29.982Z,5.24
2018-11-06T02:44:42.211Z,5.24
2018-11-06T02:46:54.361Z,5.28
2018-11-06T02:49:06.667Z,5.33
2018-11-06T02:51:18.871Z,5.35
2018-11-06T02:53:31.065Z,5.39
2018-11-06T02:55:43.338Z,5.41
2018-11-06T02:57:55.573Z,5.39
2018-11-06T03:00:10.159Z,5.37
2018-11-06T03:02:22.371Z,5.35
2018-11-06T03:04:34.592Z,5.30
2018-11-06T03:06:46.766Z,5.23
2018-11-06T03:08:58.980Z,5.18
2018-11-06T03:11:11.154Z,5.16
2018-11-06T03:13:23.398Z,5.18
2018-11-06T03:15:35.623Z,5.18
2018-11-06T03:17:47.882Z,5.21
2018-11-06T03:20:00.095Z,5.20
2018-11-06T03:22:12.279Z,5.26
2018-11-06T03:24:24.493Z,5.31
2018-11-06T03:26:36.703Z,5.34
2018-11-06T03:28:48.904Z,5.36
2018-11-06T03:31:01.118Z,5.32
2018-11-06T03:33:13.323Z,5.29
2018-11-06T03:35:25.521Z,5.28
2018-11-06T03:37:37.838Z,5.21
2018-11-06T03:39:50.023Z,5.16
2018-11-06T03:42:02.267Z,5.18
2018-11-06T03:44:14.498Z,5.20
2018-11-06T03:46:26.706Z,5.19
2018-11-06T03:48:38.982Z,5.19
2018-11-06T03:50:51.226Z,5.22
2018-11-06T03:53:03.550Z,5.23
2018-11-06T03:55:15.788Z,5.18
2018-11-06T03:57:28.024Z,5.15
2018-11-06T03:59:40.255Z,5.12
2018-11-06T04:01:52.482Z,5.13
2018-11-06T04:04:05.166Z,5.13
2018-11-06T04:06:17.379Z,5.13
2018-11-06T04:08:29.615Z,5.15
2018-11-06T04:10:41.901Z,5.16
2018-11-06T04:12:54.111Z,5.18
2018-11-06T04:15:06.689Z,5.18
2018-11-06T04:17:18.898Z,5.17
2018-11-06T04:19:31.116Z,5.17
2018-11-06T04:21:43.293Z,5.21
2018-11-06T04:23:55.518Z,5.23
2018-11-06T04:26:07.826Z,5.27
2018-11-06T04:28:20.031Z,5.25
2018-11-06T04:30:32.246Z,5.21
2018-11-06T04:32:44.450Z,5.14
2018-11-06T04:34:56.659Z,5.15
2018-11-06T04:37:08.845Z,5.13
2018-11-06T04:39:21.059Z,5.07
2018-11-06T04:41:33.267Z,4.99
2018-11-06T04:43:45.552Z,4.91
2018-11-06T04:45:57.745Z,4.95
2018-11-06T04:48:09.959Z,5.01
2018-11-06T04:50:22.290Z,5.02
2018-11-06T04:52:34.488Z,5.01
2018-11-06T04:54:46.767Z,5.00
2018-11-06T04:56:58.946Z,4.98
2018-11-06T04:59:11.204Z,4.98
2018-11-06T05:01:23.894Z,4.96
2018-11-06T05:03:40.686Z,4.96
2018-11-06T05:05:52.900Z,4.99
2018-11-06T05:08:05.095Z,5.00
2018-11-06T05:10:17.297Z,4.99
2018-11-06T05:12:29.497Z,4.91
2018-11-06T05:14:41.754Z,4.80
2018-11-06T05:16:53.965Z,4.76
2018-11-06T05:19:06.197Z,4.77
2018-11-06T05:21:18.414Z,4.76
2018-11-06T05:23:30.633Z,4.76
2018-11-06T05:25:42.858Z,4.77
2018-11-06T05:27:55.047Z,4.78
2018-11-06T05:30:08.358Z,4.88
2018-11-06T05:32:20.584Z,4.96
2018-11-06T05:34:32.809Z,5.00
2018-11-06T05:36:45.014Z,5.01
2018-11-06T05:38:57.302Z,5.01
2018-11-06T05:41:09.467Z,5.01
2018-11-06T05:43:21.659Z,5.06
2018-11-06T05:45:34.010Z,5.07
2018-11-06T05:47:46.136Z,5.07
2018-11-06T05:49:58.371Z,5.07
2018-11-06T05:52:10.715Z,4.97
2018-11-06T05:54:22.927Z,4.87
2018-11-06T05:56:35.114Z,4.79
2018-11-06T05:58:47.314Z,4.78
2018-11-06T06:00:59.766Z,4.78
2018-11-06T06:03:12.014Z,4.75
2018-11-06T06:05:24.246Z,4.71
2018-11-06T06:07:36.607Z,4.69
2018-11-06T06:09:48.886Z,4.71
2018-11-06T06:12:01.119Z,4.77
2018-11-06T06:14:13.369Z,4.82
2018-11-06T06:16:25.609Z,4.88
2018-11-06T06:18:37.813Z,4.94
2018-11-06T06:20:50.025Z,4.96
2018-11-06T06:23:02.296Z,4.96
2018-11-06T06:25:14.539Z,4.98
2018-11-06T06:27:27.014Z,5.01
2018-11-06T06:29:39.278Z,5.10
2018-11-06T06:31:51.451Z,5.16
2018-11-06T06:34:03.727Z,5.21
2018-11-06T06:36:15.927Z,5.25
2018-11-06T06:38:28.133Z,5.32
2018-11-06T06:40:40.328Z,5.36
2018-11-06T06:42:52.541Z,5.43
2018-11-06T06:45:06.703Z,5.47
2018-11-06T06:47:18.962Z,5.47
2018-11-06T06:49:31.189Z,5.45
2018-11-06T06:51:43.443Z,5.42
2018-11-06T06:53:55.704Z,5.40
2018-11-06T06:56:07.928Z,5.43
2018-11-06T06:58:20.154Z,5.46
2018-11-06T07:00:32.371Z,5.48
2018-11-06T07:02:44.599Z,5.50
2018-11-06T07:04:56.802Z,5.52
2018-11-06T07:07:09.047Z,5.56
2018-11-06T07:09:21.258Z,5.61
2018-11-06T07:11:33.493Z,5.70
2018-11-06T07:13:45.712Z,5.73
2018-11-06T07:15:57.932Z,5.79
2018-11-06T07:18:10.135Z,5.87
2018-11-06T07:20:23.904Z,5.97
2018-11-06T07:22:36.067Z,6.07
2018-11-06T07:24:48.298Z,6.13
2018-11-06T07:27:00.489Z,6.13
2018-11-06T07:29:12.724Z,6.17
2018-11-06T07:31:25.295Z,6.24
2018-11-06T07:33:37.475Z,6.32
2018-11-06T07:35:49.823Z,6.50
2018-11-06T07:38:02.001Z,6.83
2018-11-06T07:40:15.514Z,7.29
2018-11-06T07:42:27.696Z,7.63
2018-11-06T07:44:39.921Z,8.04
2018-11-06T07:46:52.185Z,8.47
2018-11-06T07:49:05.067Z,8.88
2018-11-06T07:51:17.358Z,9.20
2018-11-06T07:53:29.632Z,9.45
2018-11-06T07:55:41.963Z,9.66
2018-11-06T07:57:54.075Z,9.90
2018-11-06T08:00:10.241Z,9.98
2018-11-06T08:02:22.466Z,10.13
2018-11-06T08:04:34.663Z,10.30
2018-11-06T08:06:46.824Z,10.41
2018-11-06T08:08:59.041Z,10.51
2018-11-06T08:11:11.331Z,10.72
2018-11-06T08:13:23.548Z,11.10
2018-11-06T08:15:35.770Z,11.52
2018-11-06T08:17:48.168Z,11.87
2018-11-06T08:20:00.421Z,12.20
2018-11-06T08:22:12.599Z,12.51
2018-11-06T08:24:24.791Z,12.78
2018-11-06T08:26:37.057Z,12.83
2018-11-06T08:28:49.260Z,12.86
2018-11-06T08:31:01.837Z,12.93
2018-11-06T08:33:13.644Z,13.00
2018-11-06T08:35:25.846Z,13.23
2018-11-06T08:37:38.061Z,13.39
2018-11-06T08:39:50.330Z,13.45
2018-11-06T08:42:02.523Z,13.61
2018-11-06T08:44:14.759Z,13.71
2018-11-06T08:46:26.964Z,13.73
2018-11-06T08:48:39.183Z,13.48
2018-11-06T08:50:51.434Z,13.32
2018-11-06T08:53:03.786Z,13.43
2018-11-06T08:55:16.548Z,13.49
2018-11-06T08:57:28.823Z,13.56
2018-11-06T08:59:41.107Z,13.59
2018-11-06T09:01:53.331Z,13.61
2018-11-06T09:04:05.579Z,13.40
2018-11-06T09:06:17.790Z,13.12
2018-11-06T09:08:30.020Z,13.02
2018-11-06T09:10:42.284Z,12.97
2018-11-06T09:12:54.509Z,12.90
2018-11-06T09:15:08.222Z,12.84
2018-11-06T09:17:20.454Z,12.75
2018-11-06T09:19:32.630Z,12.59
2018-11-06T09:21:44.878Z,12.65
2018-11-06T09:23:57.126Z,12.64
2018-11-06T09:26:10.003Z,12.65
2018-11-06T09:28:22.224Z,12.59
2018-11-06T09:30:34.432Z,12.53
2018-11-06T09:32:46.686Z,12.47
2018-11-06T09:34:58.855Z,12.38
2018-11-06T09:37:11.077Z,12.36
2018-11-06T09:39:23.262Z,12.36
2018-11-06T09:41:35.585Z,12.39
2018-11-06T09:43:47.817Z,12.35
2018-11-06T09:46:00.044Z,12.39
2018-11-06T09:48:12.267Z,12.48
2018-11-06T09:50:24.493Z,12.54
2018-11-06T09:52:36.734Z,12.57
2018-11-06T09:54:49.801Z,12.64
2018-11-06T09:57:02.043Z,12.66
2018-11-06T09:59:14.283Z,12.70
2018-11-06T10:01:26.527Z,12.69
2018-11-06T10:03:38.741Z,12.72
2018-11-06T10:05:51.003Z,12.77
2018-11-06T10:08:03.268Z,12.79
2018-11-06T10:10:17.074Z,12.81
2018-11-06T10:12:29.406Z,12.83
2018-11-06T10:14:41.641Z,12.81
2018-11-06T10:16:53.839Z,12.83
2018-11-06T10:19:06.084Z,12.86
2018-11-06T10:21:18.343Z,12.89
2018-11-06T10:23:30.462Z,12.95
2018-11-06T10:25:42.680Z,13.00
2018-11-06T10:27:54.852Z,13.01
2018-11-06T10:30:09.232Z,13.02
2018-11-06T10:32:22.328Z,13.03
2018-11-06T10:34:34.570Z,13.04
2018-11-06T10:36:46.750Z,13.06
2018-11-06T10:38:58.976Z,13.08
2018-11-06T10:41:11.155Z,13.12
2018-11-06T10:43:23.374Z,13.11
2018-11-06T10:45:35.598Z,13.08
2018-11-06T10:47:48.334Z,13.09
2018-11-06T10:50:04.848Z,13.12
2018-11-06T10:52:17.385Z,13.13
2018-11-06T10:54:29.611Z,13.13
2018-11-06T10:56:41.825Z,13.17
2018-11-06T10:58:54.993Z,13.23
2018-11-06T11:01:12.966Z,13.28
2018-11-06T11:03:30.915Z,13.33
2018-11-06T11:05:43.132Z,13.35
2018-11-06T11:07:55.436Z,13.39
2018-11-06T11:10:07.643Z,13.43
2018-11-06T11:12:19.858Z,13.42
2018-11-06T11:14:32.894Z,13.43
2018-11-06T11:16:45.099Z,13.49
2018-11-06T11:18:57.325Z,13.58
2018-11-06T11:21:09.559Z,13.65
2018-11-06T11:23:22.899Z,13.69
2018-11-06T11:25:36.112Z,13.76
2018-11-06T11:27:48.318Z,13.84
2018-11-06T11:30:00.524Z,13.91
2018-11-06T11:32:12.725Z,13.98
2018-11-06T11:34:29.786Z,14.02
2018-11-06T11:36:42.016Z,14.07
2018-11-06T11:39:00.095Z,14.09
2018-11-06T11:41:15.311Z,14.12
2018-11-06T11:43:27.546Z,14.16
2018-11-06T11:45:39.778Z,14.19
2018-11-06T11:47:52.048Z,14.22
2018-11-06T11:50:05.062Z,14.23
2018-11-06T11:52:24.191Z,14.25
2018-11-06T11:54:37.362Z,14.30
2018-11-06T11:56:53.546Z,14.35
2018-11-06T11:59:05.840Z,14.39
2018-11-06T12:01:18.047Z,14.47
2018-11-06T12:03:30.282Z,14.51
2018-11-06T12:05:42.506Z,14.55
2018-11-06T12:07:54.746Z,14.66
2018-11-06T12:10:08.331Z,14.78
2018-11-06T12:12:20.546Z,14.87
2018-11-06T12:14:32.820Z,14.97
2018-11-06T12:16:45.007Z,15.03
2018-11-06T12:18:57.204Z,15.09
2018-11-06T12:21:09.451Z,15.09
2018-11-06T12:23:21.755Z,15.16
2018-11-06T12:25:34.140Z,15.21
2018-11-06T12:27:46.322Z,15.15
2018-11-06T12:29:58.590Z,15.12
2018-11-06T12:32:10.885Z,15.14
2018-11-06T12:34:23.152Z,15.13
2018-11-06T12:36:35.729Z,15.15
2018-11-06T12:38:47.907Z,15.11
2018-11-06T12:41:00.344Z,15.13
2018-11-06T12:43:12.611Z,15.13
2018-11-06T12:45:24.776Z,15.21
2018-11-06T12:47:37.047Z,15.18
2018-11-06T12:49:49.274Z,15.16
2018-11-06T12:52:02.531Z,15.16
2018-11-06T12:54:14.768Z,15.19
2018-11-06T12:56:27.066Z,15.17
2018-11-06T12:58:39.302Z,15.13
2018-11-06T13:00:51.635Z,15.11
2018-11-06T13:03:04.122Z,15.11
2018-11-06T13:05:16.369Z,15.14
2018-11-06T13:07:28.654Z,15.13
2018-11-06T13:09:40.846Z,15.11
2018-11-06T13:11:53.031Z,15.08
2018-11-06T13:14:05.417Z,15.10
2018-11-06T13:16:17.726Z,15.09
2018-11-06T13:18:30.707Z,15.07
2018-11-06T13:20:42.961Z,15.08
2018-11-06T13:22:55.227Z,15.12
2018-11-06T13:25:07.445Z,15.16
2018-11-06T13:27:21.465Z,15.12
2018-11-06T13:29:33.699Z,15.11
2018-11-06T13:31:45.939Z,15.07
2018-11-06T13:33:58.212Z,15.08
2018-11-06T13:36:10.423Z,15.12
2018-11-06T13:38:22.626Z,15.12
2018-11-06T13:40:34.898Z,15.12
2018-11-06T13:42:47.327Z,15.14
2018-11-06T13:44:59.570Z,15.15
2018-11-06T13:47:11.706Z,15.15
2018-11-06T13:49:25.068Z,15.15
2018-11-06T13:51:37.287Z,15.15
2018-11-06T13:53:49.555Z,15.13
2018-11-06T13:56:01.746Z,15.14
2018-11-06T13:58:13.954Z,15.12
2018-11-06T14:00:26.214Z,15.12
2018-11-06T14:02:38.454Z,15.13
2018-11-06T14:04:50.744Z,15.13
2018-11-06T14:07:02.959Z,15.13
2018-11-06T14:09:19.161Z,15.13
2018-11-06T14:11:32.297Z,15.15
2018-11-06T14:13:44.515Z,15.15
2018-11-06T14:15:56.770Z,15.14
2018-11-06T14:18:08.959Z,15.14
2018-11-06T14:20:23.161Z,15.13
2018-11-06T14:22:36.318Z,15.12
2018-11-06T14:24:48.577Z,15.10
2018-11-06T14:27:00.831Z,15.09
2018-11-06T14:29:13.027Z,15.08
2018-11-06T14:31:25.379Z,15.08
2018-11-06T14:33:37.639Z,15.07
2018-11-06T14:35:50.782Z,15.09
2018-11-06T14:38:02.969Z,15.08
2018-11-06T14:40:15.746Z,15.07
2018-11-06T14:42:28.078Z,15.08
2018-11-06T14:44:40.287Z,15.05
2018-11-06T14:46:52.539Z,15.02
2018-11-06T14:49:05.245Z,14.98
2018-11-06T14:51:20.304Z,14.94
2018-11-06T14:53:32.501Z,14.91
2018-11-06T14:55:44.850Z,14.87
2018-11-06T14:57:57.016Z,14.83
2018-11-06T15:00:15.388Z,14.80
2018-11-06T15:02:27.650Z,14.82
2018-11-06T15:04:39.847Z,14.76
2018-11-06T15:06:54.898Z,14.72
2018-11-06T15:09:09.785Z,14.68
2018-11-06T15:11:22.020Z,14.67
2018-11-06T15:13:34.384Z,14.64
2018-11-06T15:15:46.663Z,14.61
2018-11-06T15:17:58.904Z,14.55
2018-11-06T15:20:14.789Z,14.50
2018-11-06T15:22:27.063Z,14.46
2018-11-06T15:24:39.310Z,14.44
2018-11-06T15:26:51.543Z,14.38
2018-11-06T15:29:04.273Z,14.35
2018-11-06T15:31:16.515Z,14.32
2018-11-06T15:33:28.780Z,14.30
2018-11-06T15:35:41.059Z,14.22
2018-11-06T15:37:53.287Z,14.16
2018-11-06T15:40:08.659Z,14.13
2018-11-06T15:42:20.889Z,14.07
2018-11-06T15:44:33.176Z,14.01
2018-11-06T15:46:45.419Z,13.95
2018-11-06T15:48:57.658Z,13.88
2018-11-06T15:51:10.038Z,13.84
2018-11-06T15:53:22.421Z,13.75
2018-11-06T15:55:34.661Z,13.69
2018-11-06T15:57:46.975Z,13.61
2018-11-06T15:59:59.305Z,13.53
2018-11-06T16:02:11.589Z,13.51
2018-11-06T16:04:23.863Z,13.45
2018-11-06T16:06:36.072Z,13.42
2018-11-06T16:08:48.346Z,13.34
2018-11-06T16:11:00.658Z,13.25
2018-11-06T16:13:12.929Z,13.18
2018-11-06T16:15:25.202Z,13.09
2018-11-06T16:17:37.862Z,13.03
2018-11-06T16:19:50.139Z,13.01
2018-11-06T16:22:03.343Z,13.02
2018-11-06T16:24:15.591Z,13.02
2018-11-06T16:26:27.806Z,12.99
2018-11-06T16:28:40.038Z,13.03
2018-11-06T16:30:52.255Z,13.03
2018-11-06T16:33:05.598Z,13.03
2018-11-06T16:35:19.281Z,12.99
2018-11-06T16:37:31.571Z,12.94
2018-11-06T16:39:46.873Z,12.92
2018-11-06T16:41:59.171Z,12.87
2018-11-06T16:44:11.362Z,12.84
2018-11-06T16:46:23.603Z,12.79
2018-11-06T16:48:35.834Z,12.75
2018-11-06T16:50:48.101Z,12.67
2018-11-06T16:53:00.310Z,12.66
2018-11-06T16:55:12.935Z,12.60
2018-11-06T16:57:25.171Z,12.58
2018-11-06T16:59:37.445Z,12.54
2018-11-06T17:01:49.688Z,12.52
2018-11-06T17:04:01.937Z,12.42
2018-11-06T17:06:19.644Z,12.36
2018-11-06T17:08:32.007Z,12.28
2018-11-06T17:10:44.286Z,12.20
2018-11-06T17:12:56.575Z,12.15
2018-11-06T17:15:14.202Z,12.12
2018-11-06T17:17:26.484Z,12.10
2018-11-06T17:19:38.702Z,12.09
2018-11-06T17:21:50.892Z,12.07
2018-11-06T17:24:03.200Z,12.03
2018-11-06T17:26:15.459Z,11.97
2018-11-06T17:28:27.682Z,11.94
2018-11-06T17:30:39.970Z,11.94
2018-11-06T17:32:52.230Z,11.90
2018-11-06T17:35:05.207Z,11.90
2018-11-06T17:37:17.481Z,11.86
2018-11-06T17:39:29.773Z,11.82
2018-11-06T17:41:42.038Z,11.80
2018-11-06T17:43:54.303Z,11.74
2018-11-06T17:46:06.532Z,11.72
2018-11-06T17:48:18.756Z,11.72
2018-11-06T17:50:31.217Z,11.66
2018-11-06T17:52:43.598Z,11.63
2018-11-06T17:54:55.867Z,11.62
2018-11-06T17:57:08.090Z,11.55
2018-11-06T17:59:20.291Z,11.48
2018-11-06T18:01:32.575Z,11.39
2018-11-06T18:03:44.968Z,11.27
2018-11-06T18:05:57.183Z,11.22
2018-11-06T18:08:10.236Z,11.15
2018-11-06T18:10:22.560Z,11.12
2018-11-06T18:12:35.134Z,11.06
2018-11-06T18:14:47.369Z,11.07
2018-11-06T18:16:59.658Z,11.03
2018-11-06T18:19:11.881Z,11.04
2018-11-06T18:21:24.111Z,10.99
2018-11-06T18:23:36.355Z,10.98
2018-11-06T18:25:48.956Z,10.92
2018-11-06T18:28:00.925Z,10.87
2018-11-06T18:30:16.859Z,10.85
2018-11-06T18:32:29.090Z,10.79
2018-11-06T18:34:41.292Z,10.76
2018-11-06T18:36:53.561Z,10.76
2018-11-06T18:41:19.768Z,10.74
2018-11-06T18:43:32.055Z,10.70
2018-11-06T18:45:44.283Z,10.67
2018-11-06T18:47:56.526Z,10.65
2018-11-06T18:50:10.867Z,10.66
2018-11-06T18:52:23.130Z,10.70
2018-11-06T18:54:35.403Z,10.71
2018-11-06T18:56:47.713Z,10.72
2018-11-06T18:58:59.986Z,10.67
2018-11-06T19:01:12.314Z,10.68
2018-11-06T19:03:24.628Z,10.64
2018-11-06T19:05:36.903Z,10.63
2018-11-06T19:07:49.214Z,10.64
2018-11-06T19:10:01.506Z,10.63
2018-11-06T19:12:13.793Z,10.62
2018-11-06T19:14:26.047Z,10.58
2018-11-06T19:16:38.263Z,10.59
2018-11-06T19:18:50.547Z,10.59
2018-11-06T19:21:02.813Z,10.59
2018-11-06T19:23:15.133Z,10.59
2018-11-06T19:25:27.495Z,10.59
2018-11-06T19:27:39.767Z,10.58
2018-11-06T19:29:51.998Z,10.57
2018-11-06T19:32:04.808Z,10.53
2018-11-06T19:34:17.088Z,10.49
2018-11-06T19:36:29.406Z,10.44
2018-11-06T19:38:41.652Z,10.40
2018-11-06T19:40:53.945Z,10.35
2018-11-06T19:43:06.196Z,10.27
2018-11-06T19:45:18.445Z,10.23
2018-11-06T19:47:30.700Z,10.22
2018-11-06T19:49:43.064Z,10.22
2018-11-06T19:51:55.349Z,10.25
2018-11-06T19:54:07.648Z,10.21
2018-11-06T19:56:19.898Z,10.17
2018-11-06T19:58:32.124Z,10.14
2018-11-06T20:00:44.500Z,10.09
2018-11-06T20:02:56.668Z,10.07
2018-11-06T20:05:09.062Z,10.07
2018-11-06T20:07:21.267Z,10.07
2018-11-06T20:09:33.602Z,10.05
2018-11-06T20:11:45.866Z,10.01
2018-11-06T20:13:58.051Z,10.01
2018-11-06T20:16:10.348Z,10.00
2018-11-06T20:18:22.599Z,9.93
2018-11-06T20:20:34.881Z,9.81
2018-11-06T20:22:47.244Z,9.74
2018-11-06T20:24:59.508Z,9.73
2018-11-06T20:27:11.813Z,9.75
2018-11-06T20:29:24.104Z,9.75
2018-11-06T20:31:36.871Z,9.75
2018-11-06T20:33:49.240Z,9.78
2018-11-06T20:36:01.439Z,9.80
2018-11-06T20:38:13.694Z,9.81
2018-11-06T20:40:26.602Z,9.86
2018-11-06T20:42:39.242Z,9.87
2018-11-06T20:44:51.395Z,9.79
2018-11-06T20:47:03.905Z,9.73
2018-11-06T20:49:16.244Z,9.68
2018-11-06T20:51:28.498Z,9.62
2018-11-06T20:53:40.823Z,9.59
2018-11-06T20:55:53.069Z,9.55
2018-11-06T20:58:05.356Z,9.46
2018-11-06T21:00:21.808Z,9.42
2018-11-06T21:02:34.083Z,9.39
2018-11-06T21:04:46.311Z,9.39
2018-11-06T21:06:58.649Z,9.38
2018-11-06T21:09:11.289Z,9.29
2018-11-06T21:11:23.579Z,9.24
2018-11-06T21:13:35.863Z,9.19
2018-11-06T21:15:48.134Z,9.11
2018-11-06T21:18:00.482Z,9.08
2018-11-06T21:20:13.665Z,9.08
2018-11-06T21:22:25.879Z,9.10
2018-11-06T21:24:38.162Z,9.12
2018-11-06T21:26:50.459Z,9.15
2018-11-06T21:29:02.660Z,9.18
2018-11-06T21:31:15.033Z,9.18
2018-11-06T21:33:27.195Z,9.15
2018-11-06T21:35:39.459Z,9.14
2018-11-06T21:37:51.734Z,9.07
2018-11-06T21:40:05.701Z,8.99
2018-11-06T21:42:17.945Z,8.92
2018-11-06T21:44:30.211Z,8.82
2018-11-06T21:46:42.482Z,8.77
2018-11-06T21:48:54.715Z,8.73
2018-11-06T21:51:06.982Z,8.68
2018-11-06T21:53:19.206Z,8.72
2018-11-06T21:55:31.488Z,8.72
2018-11-06T21:57:43.751Z,8.63
2018-11-06T21:59:55.999Z,8.60
2018-11-06T22:02:08.256Z,8.56
2018-11-06T22:04:20.477Z,8.50
2018-11-06T22:06:32.722Z,8.45
2018-11-06T22:08:44.930Z,8.47
2018-11-06T22:10:57.139Z,8.53
2018-11-06T22:13:09.394Z,8.58
2018-11-06T22:15:21.642Z,8.64
2018-11-06T22:17:34.007Z,8.63
2018-11-06T22:19:46.238Z,8.62
2018-11-06T22:21:58.464Z,8.67
2018-11-06T22:24:10.667Z,8.64
2018-11-06T22:26:22.887Z,8.61
2018-11-06T22:28:35.134Z,8.56
2018-11-06T22:30:47.356Z,8.53
2018-11-06T22:32:59.599Z,8.53
2018-11-06T22:35:13.144Z,8.47
2018-11-06T22:37:25.445Z,8.49
2018-11-06T22:39:37.703Z,8.50
2018-11-06T22:41:49.988Z,8.52
2018-11-06T22:44:02.206Z,8.68
2018-11-06T22:46:14.465Z,8.84
2018-11-06T22:48:26.653Z,8.92
2018-11-06T22:50:38.915Z,8.96
2018-11-06T22:52:51.127Z,8.90
2018-11-06T22:55:03.731Z,8.86
2018-11-06T22:57:15.966Z,8.81
2018-11-06T22:59:28.225Z,8.78
2018-11-06T23:01:40.402Z,8.78
2018-11-06T23:03:53.459Z,8.78
2018-11-06T23:06:05.801Z,8.77
2018-11-06T23:08:25.003Z,8.71
2018-11-06T23:10:37.316Z,8.67
2018-11-06T23:12:49.527Z,8.66
2018-11-06T23:15:01.789Z,8.63
2018-11-06T23:17:14.031Z,8.59
2018-11-06T23:19:26.294Z,8.56
2018-11-06T23:21:38.526Z,8.53
2018-11-06T23:23:50.712Z,8.45
2018-11-06T23:26:03.042Z,8.42
2018-11-06T23:28:15.257Z,8.40
2018-11-06T23:30:27.499Z,8.28
2018-11-06T23:32:39.763Z,8.22
2018-11-06T23:34:52.006Z,8.19
2018-11-06T23:37:04.262Z,8.17
2018-11-06T23:39:16.474Z,8.22
2018-11-06T23:41:28.675Z,8.27
2018-11-06T23:43:40.906Z,8.28
2018-11-06T23:45:53.155Z,8.29
2018-11-06T23:48:05.439Z,8.29
2018-11-06T23:50:17.622Z,8.36
2018-11-06T23:52:29.855Z,8.52
2018-11-06T23:54:42.093Z,8.55
2018-11-06T23:56:54.294Z,8.54
2018-11-06T23:59:06.530Z,8.51
